Flight Track Log - Related Links

Times and Time Zones

All times are in EDT time to prevent confusion due to time zone crossing. See the N897MB flight status page for this flight to view local times or setup timezone preferences in your user account.

Time Position Orientation Groundspeed Altitude Reporting Facility
EDT Latitude Longitude Course Direction KTS MPH feet Rate Location/Type
Tue 08:56:29 AM 35.2264 -80.5506 92° East 99 114 3,500  Level Atlanta Center
Tue 08:57:30 AM 35.2256 -80.5200 92° East 100 115 3,500  Level Atlanta Center
Tue 08:58:31 AM 35.2267 -80.4844 88° East 98 113 3,500  Level Atlanta Center
Tue 08:59:19 AM 35.2258 -80.4564 92° East 99 114 3,500  Level Atlanta Center
Tue 09:00:26 AM 35.2228 -80.4233 96° East 98 113 3,500 47 Level Atlanta Center
Tue 09:01:27 AM 35.2175 -80.3881 100° East 101 116 3,600 52 Climbing Atlanta Center
Tue 09:02:22 AM 35.2164 -80.3550 92° East 100 115 3,600  Level Atlanta Center
Tue 09:03:23 AM 35.2114 -80.3197 100° East 100 115 3,600 -47 Level Atlanta Center
Tue 09:04:29 AM 35.2122 -80.2817 88° East 102 117 3,500 -91 Descending Atlanta Center
Tue 09:06:00 AM 35.2133 -80.2162 89° East  Level FlightAware Approximate
Tue 09:13:00 AM 35.2199 -79.9142 87° East  Level FlightAware Approximate
Tue 09:14:00 AM 35.2215 -79.8711 87° East  Level FlightAware Approximate
Tue 09:15:00 AM 35.2230 -79.8280 87° East  Level FlightAware Approximate
Tue 09:16:00 AM 35.2246 -79.7849 87° East  Level FlightAware Approximate
Tue 09:17:00 AM 35.2261 -79.7417 87° East  Level FlightAware Approximate
Tue 09:18:00 AM 35.2276 -79.6986 88° East  Level FlightAware Approximate
Tue 09:19:00 AM 35.2291 -79.6555 88° East  Level FlightAware Approximate
Tue 09:20:00 AM 35.2306 -79.6124 88° East  Level FlightAware Approximate
Tue 09:21:00 AM 35.2321 -79.5692 88° East  Level FlightAware Approximate
Tue 09:22:00 AM 35.2333 -79.5261 90° East  Level FlightAware Approximate
Tue 09:23:00 AM 35.2333 -79.4829 90° East  Level FlightAware Approximate
Tue 09:24:00 AM 35.2333 -79.4398 90° East  Level FlightAware Approximate
Tue 09:25:00 AM 35.2333 -79.3966 90° East  Level FlightAware Approximate
Tue 09:26:00 AM 35.2333 -79.3833 90° East  Level FlightAware Approximate
Tue 09:27:00 AM 35.2380 -79.3883 90° East  Level Estimated
Tue 09:28:00 AM 35.2333 -79.3833 90° East  Level FlightAware Approximate
Tue 09:29:00 AM 35.2380 -79.3883 90° East  Level Estimated
Tue 09:30:00 AM 35.2333 -79.3833 90° East  Level FlightAware Approximate
Tue 09:31:00 AM 35.2380 -79.3883 90° East  Level Estimated

Login

Don't have an account? Register now (free) for customized features, flight alerts, and more!